sensor_id;sensor_type;location;lat;lon;timestamp;P1;durP1;ratioP1;P2;durP2;ratioP2
68923;SDS011;55961;52.156;20.942;2023-05-29T00:01:21;15.02;;;4.78;;
68923;SDS011;55961;52.156;20.942;2023-05-29T00:03:49;15.13;;;5.13;;
68923;SDS011;55961;52.156;20.942;2023-05-29T00:06:16;9.70;;;4.30;;
68923;SDS011;55961;52.156;20.942;2023-05-29T00:08:42;14.60;;;5.23;;
68923;SDS011;55961;52.156;20.942;2023-05-29T00:11:08;14.50;;;5.25;;
68923;SDS011;55961;52.156;20.942;2023-05-29T00:13:34;13.40;;;5.25;;
68923;SDS011;55961;52.156;20.942;2023-05-29T00:16:00;12.77;;;5.13;;
68923;SDS011;55961;52.156;20.942;2023-05-29T00:18:26;9.87;;;4.80;;
68923;SDS011;55961;52.156;20.942;2023-05-29T00:20:52;14.75;;;5.13;;
68923;SDS011;55961;52.156;20.942;2023-05-29T00:23:18;12.82;;;5.53;;
68923;SDS011;55961;52.156;20.942;2023-05-29T00:25:45;11.07;;;4.65;;
68923;SDS011;55961;52.156;20.942;2023-05-29T00:28:10;15.40;;;4.80;;
68923;SDS011;55961;52.156;20.942;2023-05-29T00:30:38;12.35;;;5.40;;
68923;SDS011;55961;52.156;20.942;2023-05-29T00:33:04;10.77;;;4.72;;
68923;SDS011;55961;52.156;20.942;2023-05-29T00:35:31;12.18;;;5.50;;
68923;SDS011;55961;52.156;20.942;2023-05-29T00:37:57;11.17;;;4.93;;
68923;SDS011;55961;52.156;20.942;2023-05-29T00:40:23;15.15;;;5.32;;
68923;SDS011;55961;52.156;20.942;2023-05-29T00:42:50;12.27;;;5.45;;
68923;SDS011;55961;52.156;20.942;2023-05-29T00:45:16;12.98;;;5.03;;
68923;SDS011;55961;52.156;20.942;2023-05-29T00:47:42;15.32;;;5.10;;
68923;SDS011;55961;52.156;20.942;2023-05-29T00:50:08;13.90;;;4.73;;
68923;SDS011;55961;52.156;20.942;2023-05-29T00:52:36;11.32;;;4.95;;
68923;SDS011;55961;52.156;20.942;2023-05-29T00:55:03;12.05;;;4.55;;
68923;SDS011;55961;52.156;20.942;2023-05-29T00:57:30;12.45;;;4.90;;
68923;SDS011;55961;52.156;20.942;2023-05-29T00:59:58;15.98;;;5.53;;
68923;SDS011;55961;52.156;20.942;2023-05-29T01:02:29;13.57;;;4.73;;
68923;SDS011;55961;52.156;20.942;2023-05-29T01:04:55;14.18;;;4.68;;
68923;SDS011;55961;52.156;20.942;2023-05-29T01:07:22;13.13;;;4.55;;
68923;SDS011;55961;52.156;20.942;2023-05-29T01:09:48;8.77;;;4.13;;
68923;SDS011;55961;52.156;20.942;2023-05-29T01:12:16;12.90;;;4.43;;
68923;SDS011;55961;52.156;20.942;2023-05-29T01:20:59;12.98;;;4.45;;
68923;SDS011;55961;52.156;20.942;2023-05-29T01:28:51;9.32;;;3.92;;
68923;SDS011;55961;52.156;20.942;2023-05-29T01:31:22;12.77;;;4.60;;
68923;SDS011;55961;52.156;20.942;2023-05-29T01:33:54;10.60;;;4.03;;
68923;SDS011;55961;52.156;20.942;2023-05-29T01:36:22;13.02;;;4.78;;
68923;SDS011;55961;52.156;20.942;2023-05-29T01:38:48;9.30;;;4.20;;
68923;SDS011;55961;52.156;20.942;2023-05-29T01:41:16;9.07;;;3.60;;
68923;SDS011;55961;52.156;20.942;2023-05-29T01:43:46;8.98;;;3.60;;
68923;SDS011;55961;52.156;20.942;2023-05-29T01:46:13;8.75;;;3.78;;
68923;SDS011;55961;52.156;20.942;2023-05-29T01:48:40;10.07;;;3.53;;
68923;SDS011;55961;52.156;20.942;2023-05-29T01:51:07;8.30;;;3.53;;
68923;SDS011;55961;52.156;20.942;2023-05-29T01:53:37;8.90;;;3.42;;
68923;SDS011;55961;52.156;20.942;2023-05-29T01:56:04;11.68;;;3.72;;
68923;SDS011;55961;52.156;20.942;2023-05-29T01:58:32;9.82;;;3.47;;
68923;SDS011;55961;52.156;20.942;2023-05-29T02:01:03;10.23;;;4.00;;
68923;SDS011;55961;52.156;20.942;2023-05-29T02:03:31;11.07;;;3.70;;
68923;SDS011;55961;52.156;20.942;2023-05-29T02:05:58;9.45;;;3.53;;
68923;SDS011;55961;52.156;20.942;2023-05-29T02:08:25;11.30;;;3.72;;
68923;SDS011;55961;52.156;20.942;2023-05-29T02:10:51;8.82;;;3.28;;
68923;SDS011;55961;52.156;20.942;2023-05-29T02:13:17;9.47;;;3.47;;
68923;SDS011;55961;52.156;20.942;2023-05-29T02:15:43;8.75;;;3.60;;
68923;SDS011;55961;52.156;20.942;2023-05-29T02:18:10;10.65;;;3.20;;
68923;SDS011;55961;52.156;20.942;2023-05-29T02:20:39;10.13;;;3.50;;
68923;SDS011;55961;52.156;20.942;2023-05-29T02:23:05;10.30;;;3.10;;
68923;SDS011;55961;52.156;20.942;2023-05-29T02:25:31;9.93;;;3.53;;
68923;SDS011;55961;52.156;20.942;2023-05-29T02:27:57;8.77;;;3.00;;
68923;SDS011;55961;52.156;20.942;2023-05-29T02:30:23;12.23;;;3.97;;
68923;SDS011;55961;52.156;20.942;2023-05-29T02:32:49;8.97;;;3.97;;
68923;SDS011;55961;52.156;20.942;2023-05-29T02:35:15;10.70;;;3.22;;
68923;SDS011;55961;52.156;20.942;2023-05-29T02:37:43;8.77;;;3.63;;
68923;SDS011;55961;52.156;20.942;2023-05-29T02:40:09;9.63;;;3.35;;
68923;SDS011;55961;52.156;20.942;2023-05-29T02:42:35;10.60;;;3.40;;
68923;SDS011;55961;52.156;20.942;2023-05-29T02:45:01;8.90;;;3.67;;
68923;SDS011;55961;52.156;20.942;2023-05-29T02:47:28;8.90;;;3.25;;
68923;SDS011;55961;52.156;20.942;2023-05-29T02:49:54;9.23;;;3.90;;
68923;SDS011;55961;52.156;20.942;2023-05-29T02:52:20;9.15;;;3.47;;
68923;SDS011;55961;52.156;20.942;2023-05-29T02:54:46;11.30;;;3.83;;
68923;SDS011;55961;52.156;20.942;2023-05-29T02:57:12;8.85;;;3.72;;
68923;SDS011;55961;52.156;20.942;2023-05-29T02:59:38;8.75;;;3.45;;
68923;SDS011;55961;52.156;20.942;2023-05-29T03:02:04;12.35;;;3.67;;
68923;SDS011;55961;52.156;20.942;2023-05-29T03:04:31;10.20;;;3.30;;
68923;SDS011;55961;52.156;20.942;2023-05-29T03:06:57;9.73;;;3.55;;
68923;SDS011;55961;52.156;20.942;2023-05-29T03:09:23;12.10;;;3.80;;
68923;SDS011;55961;52.156;20.942;2023-05-29T03:11:49;10.65;;;3.90;;
68923;SDS011;55961;52.156;20.942;2023-05-29T03:14:16;9.17;;;3.43;;
68923;SDS011;55961;52.156;20.942;2023-05-29T03:16:44;11.15;;;3.80;;
68923;SDS011;55961;52.156;20.942;2023-05-29T03:19:11;8.75;;;3.55;;
68923;SDS011;55961;52.156;20.942;2023-05-29T03:21:36;9.43;;;3.60;;
68923;SDS011;55961;52.156;20.942;2023-05-29T03:24:03;10.97;;;4.23;;
68923;SDS011;55961;52.156;20.942;2023-05-29T03:26:29;11.75;;;4.00;;
68923;SDS011;55961;52.156;20.942;2023-05-29T03:28:55;10.10;;;4.18;;
68923;SDS011;55961;52.156;20.942;2023-05-29T03:31:21;9.17;;;3.30;;
68923;SDS011;55961;52.156;20.942;2023-05-29T03:33:49;9.15;;;3.75;;
68923;SDS011;55961;52.156;20.942;2023-05-29T03:36:19;12.50;;;3.95;;
68923;SDS011;55961;52.156;20.942;2023-05-29T03:38:45;8.00;;;3.15;;
68923;SDS011;55961;52.156;20.942;2023-05-29T03:41:11;11.17;;;3.50;;
68923;SDS011;55961;52.156;20.942;2023-05-29T03:43:37;14.90;;;4.00;;
68923;SDS011;55961;52.156;20.942;2023-05-29T03:46:03;10.63;;;3.63;;
68923;SDS011;55961;52.156;20.942;2023-05-29T03:48:29;10.13;;;3.55;;
68923;SDS011;55961;52.156;20.942;2023-05-29T03:50:55;8.97;;;3.70;;
68923;SDS011;55961;52.156;20.942;2023-05-29T03:53:21;16.00;;;4.10;;
68923;SDS011;55961;52.156;20.942;2023-05-29T03:55:47;11.15;;;3.70;;
68923;SDS011;55961;52.156;20.942;2023-05-29T03:58:14;11.37;;;3.70;;
68923;SDS011;55961;52.156;20.942;2023-05-29T04:00:40;12.07;;;4.22;;
68923;SDS011;55961;52.156;20.942;2023-05-29T04:03:07;11.40;;;3.78;;
68923;SDS011;55961;52.156;20.942;2023-05-29T04:05:33;13.57;;;5.93;;
68923;SDS011;55961;52.156;20.942;2023-05-29T04:08:00;12.63;;;5.00;;
68923;SDS011;55961;52.156;20.942;2023-05-29T04:10:29;10.00;;;3.97;;
68923;SDS011;55961;52.156;20.942;2023-05-29T04:12:59;8.77;;;4.05;;
68923;SDS011;55961;52.156;20.942;2023-05-29T04:15:26;13.30;;;4.32;;
68923;SDS011;55961;52.156;20.942;2023-05-29T04:17:53;13.40;;;4.45;;
68923;SDS011;55961;52.156;20.942;2023-05-29T04:20:20;14.15;;;4.45;;
68923;SDS011;55961;52.156;20.942;2023-05-29T04:22:46;10.73;;;4.10;;
68923;SDS011;55961;52.156;20.942;2023-05-29T04:25:12;12.23;;;4.68;;
68923;SDS011;55961;52.156;20.942;2023-05-29T04:27:38;8.45;;;3.90;;
68923;SDS011;55961;52.156;20.942;2023-05-29T04:30:06;6.72;;;2.90;;
68923;SDS011;55961;52.156;20.942;2023-05-29T04:32:33;7.80;;;3.47;;
68923;SDS011;55961;52.156;20.942;2023-05-29T04:35:00;8.70;;;3.30;;
68923;SDS011;55961;52.156;20.942;2023-05-29T04:37:28;8.38;;;3.50;;
68923;SDS011;55961;52.156;20.942;2023-05-29T04:39:55;7.10;;;2.95;;
68923;SDS011;55961;52.156;20.942;2023-05-29T04:42:25;7.03;;;2.90;;
68923;SDS011;55961;52.156;20.942;2023-05-29T04:44:51;10.23;;;3.00;;
68923;SDS011;55961;52.156;20.942;2023-05-29T04:47:20;8.20;;;3.28;;
68923;SDS011;55961;52.156;20.942;2023-05-29T04:49:47;7.65;;;3.17;;
68923;SDS011;55961;52.156;20.942;2023-05-29T04:52:15;8.38;;;2.95;;
68923;SDS011;55961;52.156;20.942;2023-05-29T04:54:41;8.30;;;2.90;;
68923;SDS011;55961;52.156;20.942;2023-05-29T04:57:08;7.93;;;3.80;;
68923;SDS011;55961;52.156;20.942;2023-05-29T04:59:34;9.25;;;2.72;;
68923;SDS011;55961;52.156;20.942;2023-05-29T05:02:00;10.85;;;2.90;;
68923;SDS011;55961;52.156;20.942;2023-05-29T05:04:26;8.77;;;2.92;;
68923;SDS011;55961;52.156;20.942;2023-05-29T05:06:52;10.73;;;2.40;;
68923;SDS011;55961;52.156;20.942;2023-05-29T05:09:18;7.82;;;2.90;;
68923;SDS011;55961;52.156;20.942;2023-05-29T05:11:44;9.40;;;2.88;;
68923;SDS011;55961;52.156;20.942;2023-05-29T05:14:10;7.97;;;2.60;;
68923;SDS011;55961;52.156;20.942;2023-05-29T05:16:36;6.47;;;2.38;;
68923;SDS011;55961;52.156;20.942;2023-05-29T05:19:02;11.60;;;2.90;;
68923;SDS011;55961;52.156;20.942;2023-05-29T05:21:28;17.58;;;5.20;;
68923;SDS011;55961;52.156;20.942;2023-05-29T05:23:56;9.50;;;3.13;;
68923;SDS011;55961;52.156;20.942;2023-05-29T05:26:22;11.30;;;2.70;;
68923;SDS011;55961;52.156;20.942;2023-05-29T05:28:48;7.28;;;2.70;;
68923;SDS011;55961;52.156;20.942;2023-05-29T05:31:14;8.45;;;2.70;;
68923;SDS011;55961;52.156;20.942;2023-05-29T05:33:41;7.83;;;3.10;;
68923;SDS011;55961;52.156;20.942;2023-05-29T05:36:07;9.77;;;3.00;;
68923;SDS011;55961;52.156;20.942;2023-05-29T05:38:33;12.25;;;2.40;;
68923;SDS011;55961;52.156;20.942;2023-05-29T05:40:59;8.82;;;2.50;;
68923;SDS011;55961;52.156;20.942;2023-05-29T05:43:24;8.33;;;2.80;;
68923;SDS011;55961;52.156;20.942;2023-05-29T05:45:52;9.75;;;2.92;;
68923;SDS011;55961;52.156;20.942;2023-05-29T05:48:18;9.00;;;2.47;;
68923;SDS011;55961;52.156;20.942;2023-05-29T05:50:44;8.17;;;2.37;;
68923;SDS011;55961;52.156;20.942;2023-05-29T05:53:10;7.88;;;2.75;;
68923;SDS011;55961;52.156;20.942;2023-05-29T05:55:36;9.38;;;2.58;;
68923;SDS011;55961;52.156;20.942;2023-05-29T05:58:02;9.30;;;2.60;;
68923;SDS011;55961;52.156;20.942;2023-05-29T06:00:28;6.90;;;2.33;;
68923;SDS011;55961;52.156;20.942;2023-05-29T06:02:54;7.18;;;1.50;;
68923;SDS011;55961;52.156;20.942;2023-05-29T06:05:21;8.23;;;2.03;;
68923;SDS011;55961;52.156;20.942;2023-05-29T06:07:47;7.00;;;1.48;;
68923;SDS011;55961;52.156;20.942;2023-05-29T06:10:13;8.00;;;1.92;;
68923;SDS011;55961;52.156;20.942;2023-05-29T06:12:38;5.13;;;1.80;;
68923;SDS011;55961;52.156;20.942;2023-05-29T06:15:05;9.35;;;1.75;;
68923;SDS011;55961;52.156;20.942;2023-05-29T06:17:32;6.15;;;2.05;;
68923;SDS011;55961;52.156;20.942;2023-05-29T06:19:58;5.80;;;1.52;;
68923;SDS011;55961;52.156;20.942;2023-05-29T06:22:25;6.13;;;1.60;;
68923;SDS011;55961;52.156;20.942;2023-05-29T06:24:51;6.70;;;1.70;;
68923;SDS011;55961;52.156;20.942;2023-05-29T06:27:17;7.00;;;1.70;;
68923;SDS011;55961;52.156;20.942;2023-05-29T06:29:44;5.68;;;1.70;;
68923;SDS011;55961;52.156;20.942;2023-05-29T06:32:09;5.10;;;1.40;;
68923;SDS011;55961;52.156;20.942;2023-05-29T06:34:35;5.68;;;1.67;;
68923;SDS011;55961;52.156;20.942;2023-05-29T06:37:01;6.43;;;2.05;;
68923;SDS011;55961;52.156;20.942;2023-05-29T06:39:28;6.03;;;2.03;;
68923;SDS011;55961;52.156;20.942;2023-05-29T06:41:54;5.97;;;1.90;;
68923;SDS011;55961;52.156;20.942;2023-05-29T06:44:20;7.35;;;1.50;;
68923;SDS011;55961;52.156;20.942;2023-05-29T06:46:45;6.40;;;1.50;;
68923;SDS011;55961;52.156;20.942;2023-05-29T06:49:11;4.28;;;1.20;;
68923;SDS011;55961;52.156;20.942;2023-05-29T06:51:37;9.35;;;1.33;;
68923;SDS011;55961;52.156;20.942;2023-05-29T06:54:03;7.28;;;1.60;;
68923;SDS011;55961;52.156;20.942;2023-05-29T06:56:29;9.55;;;1.15;;
68923;SDS011;55961;52.156;20.942;2023-05-29T06:58:55;6.00;;;1.40;;
68923;SDS011;55961;52.156;20.942;2023-05-29T07:01:21;8.10;;;1.13;;
68923;SDS011;55961;52.156;20.942;2023-05-29T07:03:51;4.72;;;1.75;;
68923;SDS011;55961;52.156;20.942;2023-05-29T07:06:18;7.63;;;1.33;;
68923;SDS011;55961;52.156;20.942;2023-05-29T07:08:44;4.47;;;1.20;;
68923;SDS011;55961;52.156;20.942;2023-05-29T07:11:10;7.85;;;1.50;;
68923;SDS011;55961;52.156;20.942;2023-05-29T07:13:36;6.43;;;1.70;;
68923;SDS011;55961;52.156;20.942;2023-05-29T07:16:02;8.80;;;1.30;;
68923;SDS011;55961;52.156;20.942;2023-05-29T07:18:28;6.18;;;1.25;;
68923;SDS011;55961;52.156;20.942;2023-05-29T07:20:55;5.93;;;1.23;;
68923;SDS011;55961;52.156;20.942;2023-05-29T07:23:22;7.75;;;1.20;;
68923;SDS011;55961;52.156;20.942;2023-05-29T07:25:49;5.47;;;1.10;;
68923;SDS011;55961;52.156;20.942;2023-05-29T07:28:15;6.85;;;1.17;;
68923;SDS011;55961;52.156;20.942;2023-05-29T07:30:41;5.43;;;1.60;;
68923;SDS011;55961;52.156;20.942;2023-05-29T07:33:07;10.48;;;1.23;;
68923;SDS011;55961;52.156;20.942;2023-05-29T07:35:32;8.83;;;1.37;;
68923;SDS011;55961;52.156;20.942;2023-05-29T07:37:59;4.65;;;1.40;;
68923;SDS011;55961;52.156;20.942;2023-05-29T07:40:25;6.07;;;1.50;;
68923;SDS011;55961;52.156;20.942;2023-05-29T07:42:51;6.75;;;1.48;;
68923;SDS011;55961;52.156;20.942;2023-05-29T07:45:17;5.23;;;1.40;;
68923;SDS011;55961;52.156;20.942;2023-05-29T07:47:43;4.57;;;1.90;;
68923;SDS011;55961;52.156;20.942;2023-05-29T07:50:10;7.88;;;1.60;;
68923;SDS011;55961;52.156;20.942;2023-05-29T07:52:36;6.00;;;1.52;;
68923;SDS011;55961;52.156;20.942;2023-05-29T07:55:02;7.10;;;1.60;;
68923;SDS011;55961;52.156;20.942;2023-05-29T07:57:28;9.63;;;1.90;;
68923;SDS011;55961;52.156;20.942;2023-05-29T07:59:54;6.93;;;2.00;;
68923;SDS011;55961;52.156;20.942;2023-05-29T08:02:21;4.90;;;1.83;;
68923;SDS011;55961;52.156;20.942;2023-05-29T08:04:46;7.60;;;2.10;;
68923;SDS011;55961;52.156;20.942;2023-05-29T08:07:13;5.23;;;2.00;;
68923;SDS011;55961;52.156;20.942;2023-05-29T08:09:38;8.25;;;2.00;;
68923;SDS011;55961;52.156;20.942;2023-05-29T08:12:05;6.93;;;2.05;;
68923;SDS011;55961;52.156;20.942;2023-05-29T08:14:31;9.45;;;2.08;;
68923;SDS011;55961;52.156;20.942;2023-05-29T08:16:57;7.37;;;1.90;;
68923;SDS011;55961;52.156;20.942;2023-05-29T08:19:23;6.32;;;2.00;;
68923;SDS011;55961;52.156;20.942;2023-05-29T08:21:50;6.78;;;2.10;;
68923;SDS011;55961;52.156;20.942;2023-05-29T08:24:16;8.52;;;2.58;;
68923;SDS011;55961;52.156;20.942;2023-05-29T08:26:42;5.20;;;2.00;;
68923;SDS011;55961;52.156;20.942;2023-05-29T08:29:08;6.33;;;1.80;;
68923;SDS011;55961;52.156;20.942;2023-05-29T08:31:35;7.95;;;2.10;;
68923;SDS011;55961;52.156;20.942;2023-05-29T08:34:01;7.80;;;1.98;;
68923;SDS011;55961;52.156;20.942;2023-05-29T08:36:27;8.75;;;1.92;;
68923;SDS011;55961;52.156;20.942;2023-05-29T08:38:52;8.67;;;1.90;;
68923;SDS011;55961;52.156;20.942;2023-05-29T08:41:26;7.10;;;1.90;;
68923;SDS011;55961;52.156;20.942;2023-05-29T08:44:01;8.73;;;2.10;;
68923;SDS011;55961;52.156;20.942;2023-05-29T08:46:31;9.13;;;2.50;;
68923;SDS011;55961;52.156;20.942;2023-05-29T08:48:58;5.53;;;2.40;;
68923;SDS011;55961;52.156;20.942;2023-05-29T08:51:26;6.07;;;2.42;;
68923;SDS011;55961;52.156;20.942;2023-05-29T08:53:57;8.30;;;2.17;;
68923;SDS011;55961;52.156;20.942;2023-05-29T08:56:23;9.05;;;2.38;;
68923;SDS011;55961;52.156;20.942;2023-05-29T08:58:49;5.30;;;2.30;;
68923;SDS011;55961;52.156;20.942;2023-05-29T09:01:16;5.85;;;2.10;;
68923;SDS011;55961;52.156;20.942;2023-05-29T09:03:42;8.48;;;2.40;;
68923;SDS011;55961;52.156;20.942;2023-05-29T09:06:08;11.88;;;2.80;;
68923;SDS011;55961;52.156;20.942;2023-05-29T09:08:35;11.93;;;2.53;;
68923;SDS011;55961;52.156;20.942;2023-05-29T09:11:02;9.05;;;2.47;;
68923;SDS011;55961;52.156;20.942;2023-05-29T09:13:28;10.30;;;2.63;;
68923;SDS011;55961;52.156;20.942;2023-05-29T09:16:00;6.68;;;2.42;;
68923;SDS011;55961;52.156;20.942;2023-05-29T09:18:28;7.40;;;2.60;;
68923;SDS011;55961;52.156;20.942;2023-05-29T09:20:56;9.57;;;2.35;;
68923;SDS011;55961;52.156;20.942;2023-05-29T09:23:23;6.47;;;2.10;;
68923;SDS011;55961;52.156;20.942;2023-05-29T09:25:51;7.60;;;2.30;;
68923;SDS011;55961;52.156;20.942;2023-05-29T09:28:18;7.50;;;2.10;;
68923;SDS011;55961;52.156;20.942;2023-05-29T09:30:46;8.50;;;2.30;;
68923;SDS011;55961;52.156;20.942;2023-05-29T09:33:13;8.80;;;2.25;;
68923;SDS011;55961;52.156;20.942;2023-05-29T09:35:44;8.00;;;2.40;;
68923;SDS011;55961;52.156;20.942;2023-05-29T09:38:12;8.45;;;2.30;;
68923;SDS011;55961;52.156;20.942;2023-05-29T09:40:39;6.93;;;2.22;;
68923;SDS011;55961;52.156;20.942;2023-05-29T09:43:08;5.70;;;2.20;;
68923;SDS011;55961;52.156;20.942;2023-05-29T09:45:36;6.07;;;2.25;;
68923;SDS011;55961;52.156;20.942;2023-05-29T09:48:03;6.47;;;2.42;;
68923;SDS011;55961;52.156;20.942;2023-05-29T09:50:30;8.15;;;2.95;;
68923;SDS011;55961;52.156;20.942;2023-05-29T09:52:56;5.65;;;2.72;;
68923;SDS011;55961;52.156;20.942;2023-05-29T09:55:24;11.00;;;2.63;;
68923;SDS011;55961;52.156;20.942;2023-05-29T09:57:53;6.45;;;2.50;;
68923;SDS011;55961;52.156;20.942;2023-05-29T10:00:20;9.73;;;2.58;;
68923;SDS011;55961;52.156;20.942;2023-05-29T10:02:49;5.82;;;2.05;;
68923;SDS011;55961;52.156;20.942;2023-05-29T10:05:16;10.82;;;3.78;;
68923;SDS011;55961;52.156;20.942;2023-05-29T10:07:46;12.10;;;2.70;;
68923;SDS011;55961;52.156;20.942;2023-05-29T10:10:15;7.20;;;2.35;;
68923;SDS011;55961;52.156;20.942;2023-05-29T10:12:52;4.05;;;1.92;;
68923;SDS011;55961;52.156;20.942;2023-05-29T10:15:20;9.00;;;2.58;;
68923;SDS011;55961;52.156;20.942;2023-05-29T10:17:49;6.43;;;2.40;;
68923;SDS011;55961;52.156;20.942;2023-05-29T10:20:19;9.37;;;2.30;;
68923;SDS011;55961;52.156;20.942;2023-05-29T10:22:47;8.93;;;2.63;;
68923;SDS011;55961;52.156;20.942;2023-05-29T10:25:16;5.75;;;2.10;;
68923;SDS011;55961;52.156;20.942;2023-05-29T10:27:44;5.80;;;2.38;;
68923;SDS011;55961;52.156;20.942;2023-05-29T10:35:21;6.10;;;2.45;;
68923;SDS011;55961;52.156;20.942;2023-05-29T10:37:54;6.00;;;2.55;;
68923;SDS011;55961;52.156;20.942;2023-05-29T10:40:28;6.00;;;2.42;;
68923;SDS011;55961;52.156;20.942;2023-05-29T10:42:54;8.43;;;3.10;;
68923;SDS011;55961;52.156;20.942;2023-05-29T10:48:42;9.02;;;2.28;;
68923;SDS011;55961;52.156;20.942;2023-05-29T10:50:48;7.20;;;2.70;;
68923;SDS011;55961;52.156;20.942;2023-05-29T10:53:16;10.07;;;2.30;;
68923;SDS011;55961;52.156;20.942;2023-05-29T10:55:47;6.95;;;2.47;;
68923;SDS011;55961;52.156;20.942;2023-05-29T11:00:46;7.72;;;2.58;;
68923;SDS011;55961;52.156;20.942;2023-05-29T11:03:17;11.13;;;2.75;;
68923;SDS011;55961;52.156;20.942;2023-05-29T11:05:56;10.37;;;2.87;;
68923;SDS011;55961;52.156;20.942;2023-05-29T11:08:43;6.32;;;2.78;;
68923;SDS011;55961;52.156;20.942;2023-05-29T11:11:13;11.43;;;3.15;;
68923;SDS011;55961;52.156;20.942;2023-05-29T11:13:40;7.22;;;2.70;;
68923;SDS011;55961;52.156;20.942;2023-05-29T11:16:14;8.48;;;3.20;;
68923;SDS011;55961;52.156;20.942;2023-05-29T11:18:50;6.37;;;2.77;;
68923;SDS011;55961;52.156;20.942;2023-05-29T11:21:22;7.97;;;2.83;;
68923;SDS011;55961;52.156;20.942;2023-05-29T11:24:06;6.75;;;2.80;;
68923;SDS011;55961;52.156;20.942;2023-05-29T11:26:33;10.85;;;2.67;;
68923;SDS011;55961;52.156;20.942;2023-05-29T11:29:05;5.93;;;3.17;;
68923;SDS011;55961;52.156;20.942;2023-05-29T11:31:33;7.13;;;2.87;;
68923;SDS011;55961;52.156;20.942;2023-05-29T11:34:00;9.05;;;3.30;;
68923;SDS011;55961;52.156;20.942;2023-05-29T11:36:32;9.40;;;2.67;;
68923;SDS011;55961;52.156;20.942;2023-05-29T11:38:59;9.45;;;2.92;;
68923;SDS011;55961;52.156;20.942;2023-05-29T11:41:26;8.13;;;3.20;;
68923;SDS011;55961;52.156;20.942;2023-05-29T11:43:56;6.10;;;2.67;;
68923;SDS011;55961;52.156;20.942;2023-05-29T11:46:23;7.82;;;2.78;;
68923;SDS011;55961;52.156;20.942;2023-05-29T11:48:51;9.93;;;2.95;;
68923;SDS011;55961;52.156;20.942;2023-05-29T11:51:17;10.25;;;3.42;;
68923;SDS011;55961;52.156;20.942;2023-05-29T11:53:43;10.40;;;3.10;;
68923;SDS011;55961;52.156;20.942;2023-05-29T11:56:12;8.98;;;2.95;;
68923;SDS011;55961;52.156;20.942;2023-05-29T11:58:39;8.23;;;2.30;;
68923;SDS011;55961;52.156;20.942;2023-05-29T12:01:06;7.15;;;2.47;;
68923;SDS011;55961;52.156;20.942;2023-05-29T12:03:42;5.87;;;2.60;;
68923;SDS011;55961;52.156;20.942;2023-05-29T12:06:09;7.30;;;2.58;;
68923;SDS011;55961;52.156;20.942;2023-05-29T12:08:36;6.60;;;2.60;;
68923;SDS011;55961;52.156;20.942;2023-05-29T12:11:03;7.03;;;2.50;;
68923;SDS011;55961;52.156;20.942;2023-05-29T12:13:29;9.40;;;2.28;;
68923;SDS011;55961;52.156;20.942;2023-05-29T12:15:56;7.60;;;2.40;;
68923;SDS011;55961;52.156;20.942;2023-05-29T12:18:25;8.30;;;2.50;;
68923;SDS011;55961;52.156;20.942;2023-05-29T12:20:56;5.65;;;2.17;;
68923;SDS011;55961;52.156;20.942;2023-05-29T12:23:23;9.80;;;2.70;;
68923;SDS011;55961;52.156;20.942;2023-05-29T12:25:51;7.68;;;2.35;;
68923;SDS011;55961;52.156;20.942;2023-05-29T12:28:18;10.00;;;2.20;;
68923;SDS011;55961;52.156;20.942;2023-05-29T12:30:46;8.60;;;2.22;;
68923;SDS011;55961;52.156;20.942;2023-05-29T12:33:29;5.38;;;2.20;;
68923;SDS011;55961;52.156;20.942;2023-05-29T12:36:05;6.22;;;2.30;;
68923;SDS011;55961;52.156;20.942;2023-05-29T12:38:32;8.00;;;2.30;;
68923;SDS011;55961;52.156;20.942;2023-05-29T12:40:59;9.93;;;2.33;;
68923;SDS011;55961;52.156;20.942;2023-05-29T12:43:24;6.53;;;1.90;;
68923;SDS011;55961;52.156;20.942;2023-05-29T12:45:54;7.90;;;2.67;;
68923;SDS011;55961;52.156;20.942;2023-05-29T12:48:25;5.70;;;2.20;;
68923;SDS011;55961;52.156;20.942;2023-05-29T12:50:52;5.33;;;2.33;;
68923;SDS011;55961;52.156;20.942;2023-05-29T12:53:18;6.25;;;2.22;;
68923;SDS011;55961;52.156;20.942;2023-05-29T12:55:44;6.35;;;1.75;;
68923;SDS011;55961;52.156;20.942;2023-05-29T12:58:12;7.88;;;2.42;;
68923;SDS011;55961;52.156;20.942;2023-05-29T13:00:39;6.43;;;2.00;;
68923;SDS011;55961;52.156;20.942;2023-05-29T13:03:07;5.68;;;2.22;;
68923;SDS011;55961;52.156;20.942;2023-05-29T13:05:34;6.88;;;2.30;;
68923;SDS011;55961;52.156;20.942;2023-05-29T13:08:00;9.77;;;2.05;;
68923;SDS011;55961;52.156;20.942;2023-05-29T13:10:27;6.68;;;2.10;;
68923;SDS011;55961;52.156;20.942;2023-05-29T13:12:54;6.70;;;1.73;;
68923;SDS011;55961;52.156;20.942;2023-05-29T13:15:21;7.88;;;1.73;;
68923;SDS011;55961;52.156;20.942;2023-05-29T13:17:48;7.53;;;2.50;;
68923;SDS011;55961;52.156;20.942;2023-05-29T13:20:14;8.13;;;2.17;;
68923;SDS011;55961;52.156;20.942;2023-05-29T13:22:40;10.63;;;2.27;;
68923;SDS011;55961;52.156;20.942;2023-05-29T13:25:08;5.50;;;1.80;;
68923;SDS011;55961;52.156;20.942;2023-05-29T13:27:36;5.32;;;2.15;;
68923;SDS011;55961;52.156;20.942;2023-05-29T13:30:03;8.70;;;2.10;;
68923;SDS011;55961;52.156;20.942;2023-05-29T13:32:30;6.15;;;2.17;;
68923;SDS011;55961;52.156;20.942;2023-05-29T13:34:56;4.20;;;1.70;;
68923;SDS011;55961;52.156;20.942;2023-05-29T13:37:22;6.25;;;1.95;;
68923;SDS011;55961;52.156;20.942;2023-05-29T13:39:48;10.23;;;2.28;;
68923;SDS011;55961;52.156;20.942;2023-05-29T13:42:14;4.35;;;2.10;;
68923;SDS011;55961;52.156;20.942;2023-05-29T13:44:40;4.43;;;2.20;;
68923;SDS011;55961;52.156;20.942;2023-05-29T13:47:06;7.30;;;1.98;;
68923;SDS011;55961;52.156;20.942;2023-05-29T13:49:33;4.78;;;2.17;;
68923;SDS011;55961;52.156;20.942;2023-05-29T13:52:00;8.05;;;2.15;;
68923;SDS011;55961;52.156;20.942;2023-05-29T13:54:27;6.13;;;2.40;;
68923;SDS011;55961;52.156;20.942;2023-05-29T13:56:56;4.63;;;2.20;;
68923;SDS011;55961;52.156;20.942;2023-05-29T13:59:23;9.75;;;1.90;;
68923;SDS011;55961;52.156;20.942;2023-05-29T14:01:50;4.95;;;2.20;;
68923;SDS011;55961;52.156;20.942;2023-05-29T14:04:16;4.82;;;2.08;;
68923;SDS011;55961;52.156;20.942;2023-05-29T14:06:42;5.40;;;1.80;;
68923;SDS011;55961;52.156;20.942;2023-05-29T14:09:08;10.57;;;2.17;;
68923;SDS011;55961;52.156;20.942;2023-05-29T14:11:37;4.45;;;1.80;;
68923;SDS011;55961;52.156;20.942;2023-05-29T14:14:03;4.43;;;2.00;;
68923;SDS011;55961;52.156;20.942;2023-05-29T14:16:30;6.00;;;2.03;;
68923;SDS011;55961;52.156;20.942;2023-05-29T14:18:56;8.18;;;2.30;;
68923;SDS011;55961;52.156;20.942;2023-05-29T14:21:21;6.78;;;2.50;;
68923;SDS011;55961;52.156;20.942;2023-05-29T14:23:47;5.47;;;2.20;;
68923;SDS011;55961;52.156;20.942;2023-05-29T14:26:13;6.03;;;2.15;;
68923;SDS011;55961;52.156;20.942;2023-05-29T14:28:39;7.53;;;2.33;;
68923;SDS011;55961;52.156;20.942;2023-05-29T14:31:05;6.05;;;2.25;;
68923;SDS011;55961;52.156;20.942;2023-05-29T14:33:31;4.67;;;2.10;;
68923;SDS011;55961;52.156;20.942;2023-05-29T14:35:57;5.60;;;1.98;;
68923;SDS011;55961;52.156;20.942;2023-05-29T14:38:24;5.28;;;2.03;;
68923;SDS011;55961;52.156;20.942;2023-05-29T14:40:50;4.45;;;2.20;;
68923;SDS011;55961;52.156;20.942;2023-05-29T14:43:17;5.93;;;2.17;;
68923;SDS011;55961;52.156;20.942;2023-05-29T14:45:43;4.13;;;1.63;;
68923;SDS011;55961;52.156;20.942;2023-05-29T14:48:09;6.72;;;1.73;;
68923;SDS011;55961;52.156;20.942;2023-05-29T14:50:36;5.70;;;1.70;;
68923;SDS011;55961;52.156;20.942;2023-05-29T14:53:02;7.25;;;2.00;;